Time;durP1;ratioP1;P1;durP2;ratioP2;P2;SDS_P1;SDS_P2;PMS_P1;PMS_P2;Temp;Humidity;BMP_temperature;BMP_pressure;BME280_temperature;BME280_humidity;BME280_pressure;Samples;Min_cycle;Max_cycle;Signal;HPM_P1;HPM_P2
2023/04/23 00:01:38;;;;;;;12.50;10.90;;;15.60;1.00;;;;;;5111709;27;20882;-79
2023/04/23 00:04:08;;;;;;;14.33;11.03;;;15.60;1.00;;;;;;5113549;27;20543;-79
2023/04/23 00:06:36;;;;;;;13.20;9.97;;;15.50;1.00;;;;;;5111160;27;20434;-81
2023/04/23 00:09:04;;;;;;;16.40;11.13;;;15.50;1.00;;;;;;5113769;27;20470;-80
2023/04/23 00:11:31;;;;;;;15.10;10.70;;;15.50;1.00;;;;;;5117540;27;20470;-80
2023/04/23 00:14:00;;;;;;;13.30;10.63;;;15.50;1.00;;;;;;5119793;27;20523;-80
2023/04/23 00:16:28;;;;;;;15.27;11.33;;;15.50;1.00;;;;;;5122444;27;20446;-78
2023/04/23 00:18:55;;;;;;;11.77;10.17;;;15.50;1.00;;;;;;5134116;27;20540;-81
2023/04/23 00:21:23;;;;;;;14.73;11.13;;;15.50;1.00;;;;;;5126567;27;20419;-80
2023/04/23 00:23:52;;;;;;;12.50;10.90;;;15.50;1.00;;;;;;5123947;27;20450;-79
2023/04/23 00:26:19;;;;;;;14.50;11.20;;;15.60;1.00;;;;;;5119471;27;20462;-80
2023/04/23 00:28:46;;;;;;;13.03;11.00;;;15.50;1.00;;;;;;5121934;27;20448;-80
2023/04/23 00:31:13;;;;;;;15.67;11.07;;;15.50;1.00;;;;;;5113677;27;21598;-81
2023/04/23 00:33:40;;;;;;;15.37;11.23;;;15.40;1.00;;;;;;5111391;27;20477;-79
2023/04/23 00:36:08;;;;;;;14.03;11.33;;;15.40;1.00;;;;;;5113912;27;20458;-80
2023/04/23 00:38:37;;;;;;;13.70;11.20;;;15.40;1.00;;;;;;5115611;27;20527;-79
2023/04/23 00:41:06;;;;;;;13.57;12.10;;;15.40;1.00;;;;;;5116166;27;20453;-80
2023/04/23 00:43:34;;;;;;;15.53;11.60;;;15.50;1.00;;;;;;5117309;27;20484;-81
2023/04/23 00:46:01;;;;;;;13.70;11.60;;;15.60;1.00;;;;;;5114193;27;21367;-79
2023/04/23 00:48:29;;;;;;;14.97;12.30;;;15.60;1.00;;;;;;5118427;27;21015;-79
2023/04/23 00:51:00;;;;;;;13.87;11.67;;;15.70;1.00;;;;;;5117850;27;20466;-79
2023/04/23 00:53:27;;;;;;;14.40;11.50;;;15.80;1.00;;;;;;5115812;27;20919;-80
2023/04/23 00:55:54;;;;;;;15.73;13.13;;;15.90;1.00;;;;;;5116935;27;20505;-80
2023/04/23 00:58:23;;;;;;;14.37;12.40;;;15.90;1.00;;;;;;5103962;27;20423;-80
2023/04/23 01:00:51;;;;;;;15.17;12.23;;;16.00;1.00;;;;;;5114999;27;21007;-78
2023/04/23 01:03:20;;;;;;;15.53;11.83;;;16.00;1.00;;;;;;5111386;27;20961;-79
2023/04/23 01:05:49;;;;;;;13.67;11.80;;;15.90;1.00;;;;;;5110406;27;20473;-79
2023/04/23 01:08:17;;;;;;;15.70;12.30;;;15.90;1.00;;;;;;5111033;27;20530;-79
2023/04/23 01:10:45;;;;;;;13.93;11.90;;;15.80;1.00;;;;;;5109148;27;20452;-78
2023/04/23 01:13:14;;;;;;;15.00;11.50;;;15.80;1.00;;;;;;5111608;27;21767;-77
2023/04/23 01:15:43;;;;;;;13.93;12.53;;;15.70;1.00;;;;;;5112623;27;20633;-77
2023/04/23 01:18:13;;;;;;;15.10;12.33;;;15.70;1.00;;;;;;5108642;27;20414;-79
2023/04/23 01:20:42;;;;;;;13.90;11.17;;;15.80;1.00;;;;;;5112645;27;21205;-77
2023/04/23 01:23:10;;;;;;;15.00;11.40;;;15.70;1.00;;;;;;5108472;27;20933;-78
2023/04/23 01:25:37;;;;;;;14.00;11.30;;;15.70;1.00;;;;;;5109935;27;20476;-78
2023/04/23 01:28:06;;;;;;;15.00;11.43;;;15.60;1.00;;;;;;5110769;27;20485;-78
2023/04/23 01:30:33;;;;;;;15.50;11.90;;;15.50;1.00;;;;;;5111726;27;20489;-78
2023/04/23 01:33:01;;;;;;;14.10;12.03;;;15.50;1.00;;;;;;5110733;27;20954;-77
2023/04/23 01:35:29;;;;;;;15.10;12.67;;;15.50;1.00;;;;;;5111348;27;20462;-78
2023/04/23 01:37:57;;;;;;;17.07;12.97;;;15.50;1.00;;;;;;5110785;27;20469;-77
2023/04/23 01:40:25;;;;;;;15.40;12.70;;;15.50;1.00;;;;;;5113928;27;20869;-77
2023/04/23 01:42:52;;;;;;;14.30;11.47;;;15.50;1.00;;;;;;5110841;27;20957;-78
2023/04/23 01:45:20;;;;;;;15.07;12.73;;;15.40;1.00;;;;;;5111461;27;20499;-78
2023/04/23 01:47:47;;;;;;;14.80;11.70;;;15.50;1.00;;;;;;5109756;27;20455;-78
2023/04/23 01:50:14;;;;;;;15.90;11.97;;;15.50;1.00;;;;;;5108209;27;20965;-77
2023/04/23 01:52:41;;;;;;;14.80;12.60;;;15.50;1.00;;;;;;5106838;27;21067;-77
2023/04/23 01:55:08;;;;;;;18.47;12.50;;;15.40;1.00;;;;;;5108063;27;20458;-78
2023/04/23 01:57:37;;;;;;;16.20;11.83;;;15.50;1.00;;;;;;5112761;27;20900;-79
2023/04/23 02:00:08;;;;;;;22.10;13.17;;;15.60;1.00;;;;;;5111618;27;20457;-79
2023/04/23 02:02:35;;;;;;;14.37;11.77;;;15.60;1.00;;;;;;5114702;27;20469;-78
2023/04/23 02:05:03;;;;;;;13.40;11.90;;;15.50;1.00;;;;;;5106850;27;20523;-79
2023/04/23 02:07:31;;;;;;;14.60;12.40;;;15.50;1.00;;;;;;5110750;27;20457;-79
2023/04/23 02:09:58;;;;;;;15.80;12.47;;;15.50;1.00;;;;;;5111268;27;20457;-78
2023/04/23 02:12:25;;;;;;;13.70;10.80;;;15.50;1.00;;;;;;5112066;27;20489;-78
2023/04/23 02:14:54;;;;;;;14.67;12.23;;;15.40;1.00;;;;;;5112332;27;20465;-78
2023/04/23 02:17:22;;;;;;;16.20;11.67;;;15.50;1.00;;;;;;5108400;27;20452;-77
2023/04/23 02:19:49;;;;;;;14.67;11.90;;;15.50;1.00;;;;;;5109764;27;20480;-78
2023/04/23 02:22:16;;;;;;;14.20;12.33;;;15.40;1.00;;;;;;5112275;27;20473;-77
2023/04/23 02:24:43;;;;;;;16.57;13.00;;;15.40;1.00;;;;;;5109945;27;20516;-78
2023/04/23 02:27:10;;;;;;;18.00;14.20;;;15.10;1.00;;;;;;5116080;27;20489;-78
2023/04/23 02:29:37;;;;;;;14.13;12.37;;;14.60;1.00;;;;;;5109373;27;20451;-77
2023/04/23 02:32:06;;;;;;;17.50;13.47;;;14.10;1.00;;;;;;5109795;27;20478;-79
2023/04/23 02:34:33;;;;;;;18.37;14.10;;;13.80;1.00;;;;;;5111545;27;20893;-78
2023/04/23 02:37:00;;;;;;;18.23;16.13;;;13.60;1.00;;;;;;5112522;27;20461;-79
2023/04/23 02:39:27;;;;;;;16.03;14.33;;;13.40;1.00;;;;;;5111173;27;20484;-77
2023/04/23 02:41:55;;;;;;;15.43;13.67;;;13.30;1.00;;;;;;5111451;27;20476;-78
2023/04/23 02:44:22;;;;;;;18.03;15.50;;;13.10;1.00;;;;;;5110144;27;20453;-78
2023/04/23 02:46:49;;;;;;;16.13;14.43;;;13.10;1.00;;;;;;5110391;27;20461;-79
2023/04/23 02:49:18;;;;;;;16.73;15.17;;;13.00;1.00;;;;;;5112251;27;20519;-78
2023/04/23 02:51:45;;;;;;;17.03;15.33;;;12.90;1.00;;;;;;5107776;27;21347;-78
2023/04/23 02:54:13;;;;;;;18.37;16.07;;;12.80;1.00;;;;;;5109837;27;20573;-78
2023/04/23 02:56:40;;;;;;;19.07;16.83;;;12.60;1.00;;;;;;5109786;27;20440;-78
2023/04/23 02:59:08;;;;;;;18.20;16.30;;;12.50;1.00;;;;;;5110429;27;20897;-77
2023/04/23 03:01:35;;;;;;;19.03;16.43;;;12.50;1.00;;;;;;5106722;27;20485;-78
2023/04/23 03:04:06;;;;;;;18.87;17.00;;;12.50;1.00;;;;;;5111630;27;20498;-78
2023/04/23 03:06:35;;;;;;;18.93;17.07;;;12.60;1.00;;;;;;5111040;27;20592;-78
2023/04/23 03:09:03;;;;;;;19.83;17.83;;;12.60;1.00;;;;;;5107358;27;20519;-80
2023/04/23 03:11:31;;;;;;;20.73;18.40;;;12.70;1.00;;;;;;5110280;27;20915;-78
2023/04/23 03:13:58;;;;;;;17.70;15.90;;;12.80;1.00;;;;;;5107035;27;20506;-78
2023/04/23 03:16:27;;;;;;;20.43;18.33;;;12.70;1.00;;;;;;5108802;27;20485;-78
2023/04/23 03:18:54;;;;;;;20.67;18.67;;;12.60;1.00;;;;;;5114647;27;20480;-78
2023/04/23 03:21:21;;;;;;;20.17;18.17;;;12.40;1.00;;;;;;5103239;27;20889;-79
2023/04/23 03:23:49;;;;;;;20.00;17.90;;;12.30;1.00;;;;;;5110214;27;20974;-78
2023/04/23 03:26:17;;;;;;;18.93;17.10;;;12.20;1.00;;;;;;5107931;27;20448;-79
2023/04/23 03:28:45;;;;;;;21.67;17.63;;;12.20;1.00;;;;;;5109021;27;20467;-80
2023/04/23 03:31:12;;;;;;;18.87;16.90;;;12.20;1.00;;;;;;5110752;27;20527;-80
2023/04/23 03:33:39;;;;;;;20.37;18.37;;;12.30;1.00;;;;;;5110489;27;20514;-79
2023/04/23 03:36:06;;;;;;;19.23;17.33;;;12.30;1.00;;;;;;5108618;27;20461;-79
2023/04/23 03:38:33;;;;;;;19.03;17.23;;;12.40;1.00;;;;;;5106426;27;20523;-78
2023/04/23 03:41:01;;;;;;;18.17;16.33;;;12.50;1.00;;;;;;5107590;27;20500;-78
2023/04/23 03:43:28;;;;;;;21.23;18.93;;;12.60;1.00;;;;;;5110217;27;22794;-77
2023/04/23 03:45:55;;;;;;;19.07;17.10;;;12.70;1.00;;;;;;5111812;27;20462;-79
2023/04/23 03:48:22;;;;;;;19.10;17.20;;;12.70;1.00;;;;;;5112785;27;20409;-79
2023/04/23 03:50:49;;;;;;;21.33;18.20;;;12.80;1.00;;;;;;5107315;27;20478;-79
2023/04/23 03:53:17;;;;;;;19.63;17.70;;;12.90;1.00;;;;;;5109931;27;20464;-78
2023/04/23 03:55:44;;;;;;;18.90;17.00;;;13.00;1.00;;;;;;5110741;27;20941;-78
2023/04/23 03:58:13;;;;;;;18.90;17.10;;;13.00;1.00;;;;;;5112429;27;20465;-80
2023/04/23 04:00:39;;;;;;;20.10;17.93;;;13.10;1.00;;;;;;5108970;27;20591;-78
2023/04/23 04:03:07;;;;;;;19.50;17.60;;;13.10;1.00;;;;;;5109431;27;20465;-79
2023/04/23 04:05:34;;;;;;;19.40;17.43;;;13.10;1.00;;;;;;5101829;27;20457;-78
2023/04/23 04:08:03;;;;;;;19.03;17.17;;;13.20;1.00;;;;;;5105692;27;20462;-78
2023/04/23 04:10:30;;;;;;;19.80;17.80;;;13.20;1.00;;;;;;5111013;27;20611;-78
2023/04/23 04:12:57;;;;;;;21.20;19.13;;;13.30;1.00;;;;;;5110656;27;20507;-78
2023/04/23 04:15:27;;;;;;;21.43;19.33;;;13.30;1.00;;;;;;5111127;27;20474;-78
2023/04/23 04:17:54;;;;;;;23.27;20.20;;;13.40;1.00;;;;;;5111911;27;20466;-79
2023/04/23 04:20:24;;;;;;;21.20;19.00;;;13.50;1.00;;;;;;5101882;27;20457;-78
2023/04/23 04:22:51;;;;;;;22.50;19.60;;;13.40;1.00;;;;;;5109660;27;20456;-76
2023/04/23 04:25:18;;;;;;;21.57;19.47;;;13.40;1.00;;;;;;5110055;27;20460;-76
2023/04/23 04:27:45;;;;;;;20.47;18.43;;;13.30;1.00;;;;;;5112707;27;20562;-76
2023/04/23 04:30:13;;;;;;;22.43;20.27;;;13.10;1.00;;;;;;5110439;27;20518;-76
2023/04/23 04:32:42;;;;;;;22.43;20.23;;;12.80;1.00;;;;;;5108018;27;21083;-76
2023/04/23 04:35:09;;;;;;;20.23;18.33;;;12.70;1.00;;;;;;5095553;27;20495;-76
2023/04/23 04:37:36;;;;;;;19.90;17.90;;;12.70;1.00;;;;;;5102705;27;20552;-77
2023/04/23 04:40:06;;;;;;;23.30;18.50;;;12.80;1.00;;;;;;5101003;27;21092;-76
2023/04/23 04:42:33;;;;;;;19.97;18.07;;;12.90;1.00;;;;;;5106793;27;20475;-76
2023/04/23 04:45:00;;;;;;;18.90;16.93;;;13.00;1.00;;;;;;5104428;27;20612;-77
2023/04/23 04:47:27;;;;;;;20.33;18.33;;;13.10;1.00;;;;;;5106722;27;20558;-77
2023/04/23 04:49:59;;;;;;;19.70;17.70;;;13.20;1.00;;;;;;5109850;27;20539;-75
2023/04/23 04:52:26;;;;;;;20.33;17.60;;;13.30;1.00;;;;;;5101098;27;20879;-75
2023/04/23 04:54:53;;;;;;;19.47;17.57;;;13.40;1.00;;;;;;5101494;27;20461;-76
2023/04/23 04:57:21;;;;;;;18.80;16.97;;;13.50;1.00;;;;;;5095389;27;20504;-76
2023/04/23 04:59:49;;;;;;;19.37;17.37;;;13.60;1.00;;;;;;5099927;27;20486;-76
2023/04/23 05:02:16;;;;;;;19.70;17.70;;;13.70;1.00;;;;;;5103844;27;20940;-75
2023/04/23 05:04:43;;;;;;;19.10;17.07;;;13.70;1.00;;;;;;5106301;27;21033;-76
2023/04/23 05:07:11;;;;;;;17.97;16.13;;;13.70;1.00;;;;;;5102733;27;20557;-76
2023/04/23 05:09:39;;;;;;;20.03;17.63;;;13.80;1.00;;;;;;5096988;27;20574;-76
2023/04/23 05:12:06;;;;;;;17.40;15.60;;;13.80;1.00;;;;;;5103881;27;20486;-76
2023/04/23 05:14:33;;;;;;;20.00;16.40;;;13.80;1.00;;;;;;5101845;27;20534;-75
2023/04/23 05:17:00;;;;;;;16.63;15.00;;;13.80;1.00;;;;;;5103425;27;22153;-76
2023/04/23 05:19:27;;;;;;;18.50;16.60;;;13.80;1.00;;;;;;5104910;27;20484;-75
2023/04/23 05:21:54;;;;;;;18.13;15.57;;;13.80;1.00;;;;;;5099523;27;20508;-77
2023/04/23 05:24:23;;;;;;;21.17;16.30;;;14.00;1.00;;;;;;5090314;27;20918;-76
2023/04/23 05:26:51;;;;;;;16.40;14.70;;;14.10;1.00;;;;;;5101174;27;20410;-76
2023/04/23 05:29:18;;;;;;;18.50;15.93;;;14.20;1.00;;;;;;5103586;27;20940;-77
2023/04/23 05:31:46;;;;;;;17.27;15.27;;;14.30;1.00;;;;;;5098825;27;20452;-76
2023/04/23 05:34:13;;;;;;;16.87;14.93;;;14.40;1.00;;;;;;5095421;27;20942;-76
2023/04/23 05:36:40;;;;;;;16.47;14.77;;;14.50;1.00;;;;;;5102074;27;20565;-77
2023/04/23 05:39:10;;;;;;;16.03;14.43;;;14.60;1.00;;;;;;5101050;27;20466;-78
2023/04/23 05:41:38;;;;;;;18.00;16.17;;;14.60;1.00;;;;;;5106600;27;20445;-77
2023/04/23 05:44:05;;;;;;;15.97;14.37;;;14.70;1.00;;;;;;5106017;27;20971;-77
2023/04/23 05:46:34;;;;;;;15.33;13.83;;;14.80;1.00;;;;;;5104813;27;20512;-76
2023/04/23 05:49:01;;;;;;;17.40;14.73;;;14.90;1.00;;;;;;5098344;27;21011;-76
2023/04/23 05:51:28;;;;;;;17.27;15.57;;;14.90;1.00;;;;;;5120604;27;20480;-76
2023/04/23 05:53:55;;;;;;;16.47;14.57;;;15.00;1.00;;;;;;5108960;27;22047;-76
2023/04/23 05:56:21;;;;;;;16.47;14.83;;;15.00;1.00;;;;;;5104919;27;20938;-76
2023/04/23 05:58:50;;;;;;;15.70;14.07;;;15.20;1.00;;;;;;5101708;27;20657;-77
2023/04/23 06:01:17;;;;;;;15.50;13.60;;;15.40;1.00;;;;;;5099319;27;21162;-77
2023/04/23 06:03:44;;;;;;;16.47;13.70;;;15.50;1.00;;;;;;5096419;27;20492;-77
2023/04/23 06:06:15;;;;;;;14.20;12.80;;;15.70;1.00;;;;;;5098547;27;20467;-76
2023/04/23 06:08:42;;;;;;;14.63;12.87;;;15.60;1.00;;;;;;5097918;27;20912;-76
2023/04/23 06:11:09;;;;;;;12.60;11.30;;;15.60;1.00;;;;;;5099463;27;20524;-77
2023/04/23 06:13:39;;;;;;;13.97;12.57;;;15.80;1.00;;;;;;5105634;27;20997;-77
2023/04/23 06:16:07;;;;;;;14.07;12.10;;;15.90;1.00;;;;;;5105479;27;20526;-77
2023/04/23 06:18:34;;;;;;;14.47;12.10;;;15.90;1.00;;;;;;5100861;27;20435;-77
2023/04/23 06:21:03;;;;;;;14.10;11.90;;;16.00;1.00;;;;;;5103659;27;20548;-78
2023/04/23 06:23:30;;;;;;;12.17;10.83;;;16.10;1.00;;;;;;5100243;27;20459;-77
2023/04/23 06:25:57;;;;;;;12.13;10.60;;;16.10;1.00;;;;;;5101526;27;20594;-77
2023/04/23 06:28:24;;;;;;;13.43;11.97;;;16.20;1.00;;;;;;5104790;27;20470;-77
2023/04/23 06:30:51;;;;;;;12.50;11.20;;;16.30;1.00;;;;;;5102074;27;20468;-77
2023/04/23 06:33:19;;;;;;;11.23;10.10;;;16.50;1.00;;;;;;5103968;27;20929;-76
2023/04/23 06:35:46;;;;;;;11.50;10.30;;;16.60;1.00;;;;;;5103154;27;20478;-77
2023/04/23 06:38:13;;;;;;;11.83;10.57;;;16.80;1.00;;;;;;5101402;27;20484;-77
2023/04/23 06:40:40;;;;;;;13.87;9.90;;;16.90;1.00;;;;;;5100444;27;20461;-76
2023/04/23 06:43:08;;;;;;;10.10;8.70;;;17.00;1.00;;;;;;5106603;27;20473;-76
2023/04/23 06:45:35;;;;;;;12.90;9.23;;;17.00;1.00;;;;;;5102846;27;20913;-77
2023/04/23 06:48:02;;;;;;;9.60;7.90;;;17.00;1.00;;;;;;5106952;27;20923;-77
2023/04/23 06:50:32;;;;;;;10.30;9.13;;;17.00;1.00;;;;;;5101908;27;20482;-76
2023/04/23 06:52:59;;;;;;;10.50;8.10;;;17.20;1.00;;;;;;5107027;27;20469;-76
2023/04/23 06:55:27;;;;;;;11.30;8.83;;;17.30;1.00;;;;;;5104031;27;20515;-77
2023/04/23 06:57:56;;;;;;;10.70;8.50;;;17.50;1.00;;;;;;5104108;27;20502;-77
2023/04/23 07:00:23;;;;;;;9.87;8.20;;;17.70;1.00;;;;;;5081340;28;20466;-77
2023/04/23 07:02:50;;;;;;;10.97;7.97;;;17.70;1.00;;;;;;5101623;27;20486;-76
2023/04/23 07:05:18;;;;;;;9.70;8.70;;;17.80;1.00;;;;;;5098249;27;20552;-76
2023/04/23 07:07:46;;;;;;;9.40;8.13;;;17.70;1.00;;;;;;5085236;27;20476;-77
2023/04/23 07:10:13;;;;;;;9.30;7.80;;;17.60;1.00;;;;;;5103000;28;20901;-77
2023/04/23 07:12:40;;;;;;;10.37;7.67;;;17.40;1.00;;;;;;5101092;28;20471;-76
2023/04/23 07:15:08;;;;;;;10.60;7.40;;;17.10;1.00;;;;;;5099731;27;20473;-77
2023/04/23 07:17:35;;;;;;;9.70;7.10;;;17.00;1.00;;;;;;5099975;27;20479;-77
2023/04/23 07:20:05;;;;;;;10.33;7.27;;;16.90;1.00;;;;;;5101108;28;21062;-76
2023/04/23 07:22:32;;;;;;;9.20;6.90;;;16.80;1.00;;;;;;5107442;28;20456;-77
2023/04/23 07:25:02;;;;;;;9.03;6.83;;;16.60;1.00;;;;;;5101464;28;20467;-78
2023/04/23 07:27:29;;;;;;;10.40;7.87;;;16.30;1.00;;;;;;5086936;28;20467;-78
2023/04/23 07:29:56;;;;;;;10.77;7.33;;;16.20;1.00;;;;;;5080359;28;20465;-76
2023/04/23 07:32:26;;;;;;;9.60;7.53;;;15.90;1.00;;;;;;5080199;28;20982;-77
2023/04/23 07:34:54;;;;;;;10.07;7.57;;;15.70;1.00;;;;;;5081927;28;20507;-77
2023/04/23 07:37:21;;;;;;;11.33;7.87;;;15.40;1.00;;;;;;5083265;28;20503;-79
2023/04/23 07:39:48;;;;;;;10.53;8.07;;;15.40;1.00;;;;;;5094001;27;20562;-76
2023/04/23 07:42:17;;;;;;;10.83;8.17;;;15.40;1.00;;;;;;5107621;27;21567;-76
2023/04/23 07:44:44;;;;;;;9.73;8.10;;;15.20;1.00;;;;;;5103278;27;20478;-76
2023/04/23 07:47:11;;;;;;;10.00;8.30;;;15.10;1.00;;;;;;5107652;27;20477;-76
2023/04/23 07:49:39;;;;;;;10.10;8.80;;;15.00;1.00;;;;;;5104365;27;20449;-76
2023/04/23 07:52:07;;;;;;;10.90;8.93;;;14.90;1.00;;;;;;5107313;27;20457;-78
2023/04/23 07:54:33;;;;;;;10.27;8.77;;;14.90;1.00;;;;;;5109419;27;20980;-76
2023/04/23 07:57:01;;;;;;;10.80;8.80;;;14.90;1.00;;;;;;5111805;27;20459;-76
2023/04/23 07:59:30;;;;;;;11.00;8.80;;;14.80;1.00;;;;;;5109896;27;20418;-76
2023/04/23 08:01:57;;;;;;;12.63;9.70;;;14.90;1.00;;;;;;5110313;27;20461;-76
2023/04/23 08:04:24;;;;;;;12.27;9.47;;;15.00;1.00;;;;;;5106241;27;20916;-76
2023/04/23 08:06:51;;;;;;;11.30;9.57;;;15.00;1.00;;;;;;5104667;27;20462;-76
2023/04/23 08:09:18;;;;;;;13.17;10.97;;;15.00;1.00;;;;;;5101911;27;20542;-77
2023/04/23 08:11:45;;;;;;;11.27;9.87;;;15.00;1.00;;;;;;5082921;28;20471;-77
2023/04/23 08:14:14;;;;;;;15.70;11.47;;;15.00;1.00;;;;;;5080792;28;20463;-77
2023/04/23 08:16:42;;;;;;;12.30;9.33;;;15.10;1.00;;;;;;5087670;28;20464;-78
2023/04/23 08:19:10;;;;;;;12.57;10.23;;;15.20;1.00;;;;;;5078347;28;20798;-78
2023/04/23 08:21:37;;;;;;;12.73;10.00;;;15.20;1.00;;;;;;5080292;28;20578;-78
2023/04/23 08:24:06;;;;;;;11.87;10.10;;;15.10;1.00;;;;;;5074033;28;20464;-78
2023/04/23 08:26:33;;;;;;;14.27;10.50;;;15.10;1.00;;;;;;5076966;28;20481;-78
2023/04/23 08:29:00;;;;;;;11.57;9.70;;;15.20;1.00;;;;;;5080827;28;20437;-77
2023/04/23 08:31:27;;;;;;;14.53;11.10;;;15.20;1.00;;;;;;5083597;28;20833;-78
2023/04/23 08:33:56;;;;;;;12.20;10.37;;;15.30;1.00;;;;;;5084915;28;20472;-78
2023/04/23 08:36:24;;;;;;;13.10;11.00;;;15.20;1.00;;;;;;5088060;28;20470;-77
2023/04/23 08:38:51;;;;;;;12.37;10.50;;;15.20;1.00;;;;;;5108187;28;20507;-77
2023/04/23 08:41:21;;;;;;;13.20;10.60;;;15.40;1.00;;;;;;5105687;27;20925;-77
2023/04/23 08:43:55;;;;;;;12.60;10.00;;;15.60;1.00;;;;;;5110208;27;20468;-79
2023/04/23 08:46:23;;;;;;;11.87;10.03;;;15.70;1.00;;;;;;5092963;27;20472;-77
2023/04/23 08:48:53;;;;;;;12.63;9.93;;;15.70;1.00;;;;;;5107090;27;20456;-79
2023/04/23 08:51:25;;;;;;;14.33;10.70;;;15.80;1.00;;;;;;5098738;28;20502;-79
2023/04/23 08:53:56;;;;;;;11.40;8.97;;;15.80;1.00;;;;;;5094288;28;20557;-79
2023/04/23 08:56:25;;;;;;;10.50;9.40;;;15.90;1.00;;;;;;5105862;28;20570;-78
2023/04/23 08:58:52;;;;;;;10.97;9.43;;;16.00;1.00;;;;;;5104435;28;20533;-78
2023/04/23 09:01:19;;;;;;;11.33;9.33;;;16.10;1.00;;;;;;5102442;27;20491;-78
2023/04/23 09:03:53;;;;;;;11.60;9.17;;;16.30;1.00;;;;;;5110649;27;20513;-77
2023/04/23 09:06:23;;;;;;;11.20;9.37;;;16.50;1.00;;;;;;5119725;27;20897;-78
2023/04/23 09:08:51;;;;;;;11.83;9.80;;;16.80;1.00;;;;;;5102026;28;20889;-78
2023/04/23 09:11:20;;;;;;;12.37;9.33;;;16.90;1.00;;;;;;5084944;28;20446;-79
2023/04/23 09:13:47;;;;;;;11.27;8.83;;;16.80;1.00;;;;;;5090942;28;20575;-77
2023/04/23 09:16:15;;;;;;;13.07;9.27;;;16.60;1.00;;;;;;5104626;27;20479;-79
2023/04/23 09:18:42;;;;;;;12.73;9.20;;;16.40;1.00;;;;;;5106065;28;20607;-80
2023/04/23 09:21:10;;;;;;;11.77;9.63;;;16.30;1.00;;;;;;5102570;27;20660;-78
2023/04/23 09:23:41;;;;;;;12.03;9.00;;;16.30;1.00;;;;;;5104393;27;20526;-78
2023/04/23 09:26:08;;;;;;;11.47;9.53;;;16.40;1.00;;;;;;5103082;28;21132;-79
2023/04/23 09:28:36;;;;;;;12.60;9.90;;;16.40;1.00;;;;;;5104167;28;20551;-80
2023/04/23 09:31:04;;;;;;;13.17;9.23;;;16.30;1.00;;;;;;5105212;27;20464;-79
2023/04/23 09:33:34;;;;;;;10.60;9.17;;;16.30;1.00;;;;;;5103319;27;20526;-79
2023/04/23 09:36:09;;;;;;;11.60;9.60;;;16.10;1.00;;;;;;5103647;28;20475;-79
2023/04/23 09:38:36;;;;;;;10.63;8.80;;;16.00;1.00;;;;;;5088809;28;20471;-79
2023/04/23 09:41:23;;;;;;;12.13;9.67;;;15.90;1.00;;;;;;5097936;28;20549;-76
2023/04/23 09:43:52;;;;;;;11.50;9.80;;;15.80;1.00;;;;;;5098324;27;20452;-78
2023/04/23 09:46:19;;;;;;;12.53;7.50;;;15.60;1.00;;;;;;5086705;27;20464;-78
2023/04/23 09:48:47;;;;;;;10.27;7.90;;;15.30;1.00;;;;;;5088813;28;20561;-80
2023/04/23 09:51:15;;;;;;;9.77;7.63;;;15.10;1.00;;;;;;5086449;28;21458;-78
2023/04/23 09:53:43;;;;;;;8.23;6.47;;;15.10;1.00;;;;;;5091734;28;20522;-79
2023/04/23 09:56:10;;;;;;;9.10;7.07;;;14.90;1.00;;;;;;5080930;28;20479;-79
2023/04/23 09:58:39;;;;;;;11.20;5.00;;;14.90;1.00;;;;;;5084914;28;20447;-78
2023/04/23 10:01:09;;;;;;;7.57;5.60;;;14.70;1.00;;;;;;5095849;27;20989;-77
2023/04/23 10:03:36;;;;;;;8.07;4.50;;;14.60;1.00;;;;;;5086082;27;21699;-79
2023/04/23 10:06:04;;;;;;;7.17;4.00;;;14.50;1.00;;;;;;5098306;27;20576;-77
2023/04/23 10:08:32;;;;;;;6.37;3.80;;;14.40;1.00;;;;;;5110207;27;20454;-77
2023/04/23 10:10:59;;;;;;;6.80;4.40;;;14.30;1.00;;;;;;5113035;28;20447;-77
2023/04/23 10:13:27;;;;;;;6.60;4.47;;;14.30;1.00;;;;;;5113526;28;21166;-77
2023/04/23 10:15:56;;;;;;;7.67;5.03;;;14.30;1.00;;;;;;5110311;27;20922;-77
2023/04/23 10:18:23;;;;;;;7.43;4.83;;;14.30;1.00;;;;;;5093990;28;20949;-78
2023/04/23 10:20:53;;;;;;;7.93;5.27;;;14.30;1.00;;;;;;5097790;28;20987;-77
2023/04/23 10:23:23;;;;;;;9.33;5.50;;;14.40;1.00;;;;;;5102754;28;20977;-78
2023/04/23 10:25:52;;;;;;;7.53;4.00;;;14.40;1.00;;;;;;5113151;28;20466;-79
2023/04/23 10:28:27;;;;;;;6.70;4.60;;;14.40;1.00;;;;;;5112730;28;20480;-77
2023/04/23 10:30:58;;;;;;;6.50;4.27;;;14.40;1.00;;;;;;5111060;28;20961;-77
2023/04/23 10:33:28;;;;;;;7.27;4.70;;;14.40;1.00;;;;;;5095607;27;20443;-78
2023/04/23 10:35:57;;;;;;;8.53;5.63;;;14.50;1.00;;;;;;5093127;28;20474;-78
2023/04/23 10:38:27;;;;;;;11.47;5.37;;;14.70;1.00;;;;;;5112826;28;20443;-77
2023/04/23 10:40:56;;;;;;;8.20;5.20;;;14.90;1.00;;;;;;5111902;28;20463;-78
2023/04/23 10:43:24;;;;;;;8.40;5.90;;;15.30;1.00;;;;;;5110954;28;20469;-78
2023/04/23 10:45:52;;;;;;;8.43;5.60;;;15.60;1.00;;;;;;5113371;28;20554;-78
2023/04/23 10:48:22;;;;;;;8.90;6.43;;;15.80;1.00;;;;;;5110315;27;20464;-78
2023/04/23 10:50:57;;;;;;;10.07;6.13;;;16.30;1.00;;;;;;5107005;28;20462;-77
2023/04/23 10:53:25;;;;;;;9.10;6.60;;;16.70;1.00;;;;;;5107325;27;20505;-78
2023/04/23 10:56:05;;;;;;;8.90;6.90;;;17.00;1.00;;;;;;5103671;27;20476;-77
2023/04/23 10:58:50;;;;;;;8.90;6.50;;;17.40;1.00;;;;;;5104795;27;20520;-76
2023/04/23 11:01:19;;;;;;;10.17;7.73;;;17.50;1.00;;;;;;5094541;27;20967;-77
2023/04/23 11:03:48;;;;;;;9.83;6.40;;;17.70;1.00;;;;;;5075004;28;21117;-76
2023/04/23 11:06:53;;;;;;;9.23;6.70;;;17.90;1.00;;;;;;5084388;28;20466;-76
2023/04/23 11:09:39;;;;;;;10.90;6.30;;;18.00;1.00;;;;;;5076652;28;20989;-76
2023/04/23 11:12:08;;;;;;;8.50;6.30;;;17.80;1.00;;;;;;5071272;28;20554;-76
2023/04/23 11:14:46;;;;;;;9.20;7.33;;;17.70;1.00;;;;;;5067727;28;20542;-77
2023/04/23 11:17:14;;;;;;;8.33;5.90;;;17.80;1.00;;;;;;5071614;28;20585;-76
2023/04/23 11:20:10;;;;;;;8.80;6.37;;;17.90;1.00;;;;;;5068901;28;20495;-76
2023/04/23 11:22:38;;;;;;;9.20;7.30;;;17.80;1.00;;;;;;5073843;28;20921;-76
2023/04/23 11:25:09;;;;;;;10.37;8.50;;;17.70;1.00;;;;;;5085992;28;20908;-75
2023/04/23 11:27:39;;;;;;;10.70;8.60;;;17.70;1.00;;;;;;5089550;28;20880;-75
2023/04/23 11:30:11;;;;;;;10.90;8.80;;;17.60;1.00;;;;;;5092195;28;20460;-77
2023/04/23 11:32:39;;;;;;;11.53;8.80;;;17.80;1.00;;;;;;5090397;28;20916;-77
2023/04/23 11:35:09;;;;;;;13.70;10.10;;;17.90;1.00;;;;;;5090809;28;20458;-77
2023/04/23 11:37:40;;;;;;;10.63;8.50;;;18.20;1.00;;;;;;5092065;28;20479;-76
2023/04/23 11:40:09;;;;;;;11.27;9.07;;;18.60;1.00;;;;;;5087516;28;20582;-76
2023/04/23 11:42:42;;;;;;;13.50;10.60;;;18.90;1.00;;;;;;5082958;28;20897;-76
2023/04/23 11:45:15;;;;;;;10.53;8.63;;;19.00;1.00;;;;;;5075860;28;20460;-77
2023/04/23 11:47:44;;;;;;;12.17;7.90;;;19.10;1.00;;;;;;5087892;28;20555;-77
2023/04/23 11:50:17;;;;;;;11.10;7.93;;;19.40;1.00;;;;;;5073653;28;20552;-76
2023/04/23 11:52:46;;;;;;;11.40;7.93;;;19.40;1.00;;;;;;5085606;28;20899;-77
2023/04/23 11:55:13;;;;;;;10.30;7.17;;;19.40;1.00;;;;;;5088622;28;20460;-77
2023/04/23 11:57:44;;;;;;;10.37;7.43;;;19.40;1.00;;;;;;5091593;28;20522;-76
2023/04/23 12:00:17;;;;;;;11.60;7.80;;;20.30;1.00;;;;;;5089197;28;20457;-77
2023/04/23 12:02:52;;;;;;;9.63;6.57;;;22.60;1.00;;;;;;5110579;28;20464;-76
2023/04/23 12:05:22;;;;;;;9.10;6.57;;;25.60;1.00;;;;;;5111068;27;20504;-76
2023/04/23 12:07:50;;;;;;;9.40;6.53;;;26.50;1.00;;;;;;5114637;27;20559;-76
2023/04/23 12:10:19;;;;;;;10.90;7.70;;;26.90;1.00;;;;;;5114665;27;20539;-77
2023/04/23 12:12:50;;;;;;;12.80;8.13;;;27.00;1.00;;;;;;5115893;28;20515;-76
2023/04/23 12:15:17;;;;;;;11.80;7.03;;;27.20;1.00;;;;;;5108039;27;20418;-76
2023/04/23 12:17:52;;;;;;;10.77;8.07;;;27.20;1.00;;;;;;5113223;28;20546;-79
2023/04/23 12:20:21;;;;;;;9.90;7.47;;;27.80;1.00;;;;;;5113081;27;20479;-76
2023/04/23 12:22:48;;;;;;;10.03;7.00;;;28.30;1.00;;;;;;5115014;28;20488;-76
2023/04/23 12:25:15;;;;;;;10.90;7.40;;;27.10;1.00;;;;;;5106230;27;21850;-76
2023/04/23 12:27:45;;;;;;;13.00;8.37;;;25.90;1.00;;;;;;5116907;27;20503;-77
2023/04/23 12:30:13;;;;;;;10.17;6.27;;;24.50;1.00;;;;;;5115407;28;20947;-78
2023/04/23 12:32:42;;;;;;;9.93;6.60;;;23.40;1.00;;;;;;5117460;27;20456;-77
2023/04/23 12:35:10;;;;;;;9.20;5.53;;;22.60;1.00;;;;;;5114502;28;20464;-76
2023/04/23 12:37:38;;;;;;;8.90;5.00;;;22.20;1.00;;;;;;5110453;27;20575;-77
2023/04/23 12:40:07;;;;;;;9.03;5.43;;;22.40;1.00;;;;;;5106219;27;20461;-75
2023/04/23 12:42:36;;;;;;;11.27;5.60;;;22.30;1.00;;;;;;5110751;27;20530;-77
2023/04/23 12:45:07;;;;;;;7.80;3.00;;;22.60;1.00;;;;;;5109787;27;20468;-77
2023/04/23 12:47:35;;;;;;;6.73;3.10;;;24.10;1.00;;;;;;5115993;27;20529;-76
2023/04/23 12:50:04;;;;;;;5.80;2.20;;;25.70;1.00;;;;;;5113884;27;20474;-77